createdAt,value
2022-12-20T06:02:40.668Z,21.00
2022-12-20T06:03:11.727Z,28.30
2022-12-20T06:03:42.720Z,35.60
2022-12-20T06:04:13.607Z,39.40
2022-12-20T06:04:44.381Z,38.20
2022-12-20T06:05:15.123Z,37.50
2022-12-20T06:05:45.862Z,41.20
2022-12-20T06:06:16.605Z,40.00
2022-12-20T06:06:47.370Z,35.70
2022-12-20T06:07:18.109Z,38.00
2022-12-20T06:07:48.851Z,37.30
2022-12-20T06:08:19.591Z,39.40
2022-12-20T06:08:50.332Z,42.30
2022-12-20T06:09:21.090Z,39.50
2022-12-20T06:09:51.822Z,41.50
2022-12-20T06:10:22.561Z,41.70
2022-12-20T06:10:53.306Z,40.50
2022-12-20T06:11:29.683Z,41.00
2022-12-20T06:11:56.653Z,38.30
2022-12-20T06:12:27.390Z,40.70
2022-12-20T06:12:58.679Z,37.20
2022-12-20T06:13:29.656Z,34.00
2022-12-20T06:14:00.605Z,38.60
2022-12-20T06:14:31.604Z,36.90
2022-12-20T06:15:02.778Z,38.90
2022-12-20T06:15:34.185Z,36.20
2022-12-20T06:16:05.060Z,36.30
2022-12-20T06:16:36.087Z,36.10
2022-12-20T06:17:07.112Z,36.90
2022-12-20T06:17:38.615Z,37.30
2022-12-20T06:18:09.474Z,32.80
2022-12-20T06:18:40.544Z,32.30
2022-12-20T06:19:16.031Z,30.90
2022-12-20T06:19:44.975Z,33.20
2022-12-20T06:20:15.810Z,29.70
2022-12-20T06:20:46.595Z,32.60
2022-12-20T06:21:17.424Z,33.90
2022-12-20T06:21:48.226Z,32.60
2022-12-20T06:22:19.065Z,28.80
2022-12-20T06:22:49.862Z,29.80
2022-12-20T06:23:20.655Z,33.20
2022-12-20T06:23:51.444Z,33.90
2022-12-20T06:24:22.257Z,28.60
2022-12-20T06:24:53.055Z,31.00
2022-12-20T06:25:32.324Z,30.20
2022-12-20T06:25:54.085Z,30.70
2022-12-20T06:26:25.350Z,33.30
2022-12-20T06:26:56.410Z,31.50
2022-12-20T06:27:27.412Z,32.60
2022-12-20T06:27:58.417Z,29.70
2022-12-20T06:28:29.576Z,28.40
2022-12-20T06:29:00.707Z,28.90
2022-12-20T06:29:31.600Z,30.60
2022-12-20T06:30:02.613Z,31.60
2022-12-20T06:30:34.214Z,31.10
2022-12-20T06:31:05.167Z,31.30
2022-12-20T06:31:36.375Z,29.90
2022-12-20T06:32:08.267Z,33.00
2022-12-20T06:32:39.159Z,31.50
2022-12-20T06:33:10.365Z,30.30
2022-12-20T06:33:41.629Z,28.10
2022-12-20T06:34:12.893Z,28.70
2022-12-20T06:34:43.875Z,28.30
2022-12-20T06:35:15.103Z,30.10
2022-12-20T06:35:46.500Z,30.20
2022-12-20T06:36:17.595Z,28.60
2022-12-20T06:36:48.863Z,29.00
2022-12-20T06:37:19.990Z,27.30
2022-12-20T06:37:50.965Z,27.30
2022-12-20T06:38:21.834Z,28.40
2022-12-20T06:38:52.975Z,28.70
2022-12-20T06:39:23.925Z,27.60
2022-12-20T06:39:54.824Z,25.20
2022-12-20T06:40:25.818Z,25.10
2022-12-20T06:40:56.723Z,23.30
2022-12-20T06:41:27.770Z,25.20
2022-12-20T06:41:58.982Z,25.20
2022-12-20T06:42:29.899Z,25.50
2022-12-20T06:43:00.897Z,24.80
2022-12-20T06:43:31.692Z,24.80
2022-12-20T06:44:02.615Z,26.40
2022-12-20T06:44:33.535Z,27.00
2022-12-20T06:45:04.621Z,29.10
2022-12-20T06:45:41.211Z,27.00
2022-12-20T06:46:08.981Z,26.60
2022-12-20T06:46:40.060Z,26.20
2022-12-20T06:47:11.329Z,27.10
2022-12-20T06:47:42.155Z,25.80
2022-12-20T06:48:13.788Z,25.30
2022-12-20T06:48:44.613Z,23.50
2022-12-20T06:49:15.700Z,23.70
2022-12-20T06:49:46.571Z,26.00
2022-12-20T06:50:17.442Z,26.40
2022-12-20T06:50:55.317Z,24.70
2022-12-20T06:51:21.308Z,23.50
2022-12-20T06:51:52.308Z,24.40
2022-12-20T06:52:23.301Z,24.20
2022-12-20T06:52:53.994Z,27.20
2022-12-20T06:53:25.017Z,25.80
2022-12-20T06:53:55.982Z,24.90
2022-12-20T06:54:27.298Z,23.20
2022-12-20T06:54:58.208Z,23.90
2022-12-20T06:55:29.197Z,25.40
2022-12-20T06:56:00.412Z,24.40
2022-12-20T06:56:36.058Z,25.50
2022-12-20T06:57:04.360Z,25.40
2022-12-20T06:57:35.288Z,24.90
2022-12-20T06:58:06.325Z,26.00
2022-12-20T06:58:37.356Z,24.40
2022-12-20T06:59:08.738Z,27.30
2022-12-20T06:59:39.587Z,26.60
2022-12-20T07:00:10.398Z,25.00
2022-12-20T07:00:41.230Z,24.70
2022-12-20T07:01:12.094Z,26.20
2022-12-20T07:01:43.091Z,23.60
2022-12-20T07:02:14.244Z,24.90
2022-12-20T07:02:45.506Z,23.90
2022-12-20T07:03:16.596Z,22.90
2022-12-20T07:03:47.542Z,22.50
2022-12-20T07:04:18.394Z,23.60
2022-12-20T07:04:49.346Z,24.20
2022-12-20T07:05:20.218Z,22.40
2022-12-20T07:05:51.103Z,23.80
2022-12-20T07:06:21.918Z,23.40
2022-12-20T07:06:53.090Z,21.30
2022-12-20T07:07:24.050Z,22.40
2022-12-20T07:07:54.876Z,24.20
2022-12-20T07:08:25.784Z,23.10
2022-12-20T07:08:56.587Z,22.90
2022-12-20T07:09:27.370Z,22.50
2022-12-20T07:09:58.126Z,23.00
2022-12-20T07:10:28.886Z,24.10
2022-12-20T07:10:59.671Z,22.80
2022-12-20T07:11:30.422Z,22.90
2022-12-20T07:12:01.249Z,22.50
2022-12-20T07:12:32.025Z,21.60
2022-12-20T07:13:03.256Z,22.50
2022-12-20T07:13:34.010Z,22.60
2022-12-20T07:14:04.785Z,21.70
2022-12-20T07:14:47.758Z,22.10
2022-12-20T07:15:06.787Z,22.30
2022-12-20T07:15:37.700Z,21.40
2022-12-20T07:16:08.690Z,21.50
2022-12-20T07:16:39.872Z,21.70
2022-12-20T07:17:11.028Z,21.00
2022-12-20T07:17:41.879Z,21.40
2022-12-20T07:18:13.388Z,20.60
2022-12-20T07:18:44.645Z,18.10
2022-12-20T07:19:15.549Z,19.40
2022-12-20T07:19:50.789Z,19.50
2022-12-20T07:20:19.167Z,20.30
2022-12-20T07:20:50.389Z,21.00
2022-12-20T07:21:21.707Z,21.40
2022-12-20T07:21:52.955Z,20.60
2022-12-20T07:22:24.299Z,20.70
2022-12-20T07:22:55.687Z,20.70
2022-12-20T07:23:26.548Z,20.10
2022-12-20T07:23:57.599Z,20.40
2022-12-20T07:24:28.455Z,19.90
2022-12-20T07:24:59.396Z,21.50
2022-12-20T07:25:30.222Z,19.60
2022-12-20T07:26:01.030Z,20.30
2022-12-20T07:26:31.966Z,20.90
2022-12-20T07:27:03.289Z,18.40
2022-12-20T07:27:34.083Z,19.40
2022-12-20T07:28:04.982Z,20.30
2022-12-20T07:28:35.812Z,20.90
2022-12-20T07:29:11.911Z,20.70
2022-12-20T07:29:36.695Z,19.50
2022-12-20T07:30:07.661Z,18.90
2022-12-20T07:30:38.776Z,20.40
2022-12-20T07:31:09.707Z,19.80
2022-12-20T07:31:40.689Z,19.60
2022-12-20T07:32:11.726Z,20.00
2022-12-20T07:32:42.820Z,18.90
2022-12-20T07:33:14.234Z,18.30
2022-12-20T07:33:45.090Z,18.60
2022-12-20T07:34:16.032Z,20.20
2022-12-20T07:34:46.877Z,20.10
2022-12-20T07:35:17.747Z,19.30
2022-12-20T07:35:54.179Z,19.60
2022-12-20T07:36:21.325Z,19.40
2022-12-20T07:36:52.179Z,18.40
2022-12-20T07:37:23.031Z,17.90
2022-12-20T07:37:53.888Z,18.50
2022-12-20T07:38:24.731Z,19.10
2022-12-20T07:38:55.630Z,19.60
2022-12-20T07:39:26.475Z,18.40
2022-12-20T07:39:57.450Z,18.80
2022-12-20T07:40:28.359Z,18.90
2022-12-20T07:40:59.424Z,18.70
2022-12-20T07:41:30.314Z,18.30
2022-12-20T07:42:01.589Z,17.70
2022-12-20T07:42:37.329Z,19.90
2022-12-20T07:43:06.172Z,18.60
2022-12-20T07:43:37.051Z,18.20
2022-12-20T07:44:08.513Z,19.70
2022-12-20T07:44:39.458Z,19.30
2022-12-20T07:45:10.719Z,18.60
2022-12-20T07:45:41.677Z,18.00
2022-12-20T07:46:12.768Z,16.50
2022-12-20T07:46:43.742Z,18.10
2022-12-20T07:47:14.799Z,17.60
2022-12-20T07:47:45.691Z,18.80
2022-12-20T07:48:21.590Z,18.30
2022-12-20T07:48:49.477Z,19.00
2022-12-20T07:49:20.378Z,19.90
2022-12-20T07:49:51.238Z,20.20
2022-12-20T07:50:22.415Z,18.70
2022-12-20T07:50:53.489Z,20.00
2022-12-20T07:51:24.440Z,19.30
2022-12-20T07:51:55.625Z,19.30
2022-12-20T07:52:26.479Z,19.40
2022-12-20T07:52:57.683Z,20.40
2022-12-20T07:53:28.871Z,19.80
2022-12-20T07:54:00.113Z,19.80
2022-12-20T07:54:30.980Z,20.30
2022-12-20T07:55:01.892Z,18.90
2022-12-20T07:55:33.079Z,17.80
2022-12-20T07:56:04.586Z,19.20
2022-12-20T07:56:40.822Z,17.70
2022-12-20T07:57:08.540Z,18.90
2022-12-20T07:57:39.638Z,20.00
2022-12-20T07:58:10.520Z,19.80
2022-12-20T07:58:41.442Z,20.20
2022-12-20T07:59:12.388Z,19.80
2022-12-20T07:59:43.507Z,22.00
2022-12-20T08:00:14.576Z,19.80
2022-12-20T08:00:45.504Z,21.10
2022-12-20T08:01:16.403Z,20.30
2022-12-20T08:01:47.446Z,20.30
2022-12-20T08:02:18.601Z,18.00
2022-12-20T08:02:50.137Z,18.90
2022-12-20T08:03:21.334Z,18.30
2022-12-20T08:03:52.440Z,19.30
2022-12-20T08:04:23.665Z,19.80
2022-12-20T08:04:54.602Z,20.00
2022-12-20T08:05:25.507Z,20.00
2022-12-20T08:05:56.599Z,19.60
2022-12-20T08:06:27.514Z,19.00
2022-12-20T08:06:58.458Z,19.60
2022-12-20T08:07:29.362Z,21.00
2022-12-20T08:08:00.279Z,20.30
2022-12-20T08:08:31.299Z,20.10
2022-12-20T08:09:02.261Z,19.10
2022-12-20T08:09:33.228Z,20.60
2022-12-20T08:10:04.097Z,20.70
2022-12-20T08:10:35.057Z,19.70
2022-12-20T08:11:05.931Z,21.60
2022-12-20T08:11:36.916Z,21.50
2022-12-20T08:12:07.725Z,21.30
2022-12-20T08:12:39.826Z,20.60
2022-12-20T08:13:10.758Z,17.70
2022-12-20T08:13:46.204Z,19.40
2022-12-20T08:14:14.537Z,19.90
2022-12-20T08:14:45.534Z,20.30
2022-12-20T08:15:16.387Z,20.90
2022-12-20T08:15:47.276Z,20.40
2022-12-20T08:16:18.276Z,19.70
2022-12-20T08:16:49.364Z,20.30
2022-12-20T08:17:20.303Z,21.10
2022-12-20T08:17:51.412Z,20.20
2022-12-20T08:18:22.440Z,22.00
2022-12-20T08:18:53.508Z,21.80
2022-12-20T08:19:30.203Z,21.70
2022-12-20T08:19:57.325Z,20.80
2022-12-20T08:20:28.624Z,19.90
2022-12-20T08:20:59.656Z,19.90
2022-12-20T08:21:30.898Z,21.10
2022-12-20T08:22:01.880Z,21.30
2022-12-20T08:22:32.955Z,20.90
2022-12-20T08:23:03.918Z,21.40
2022-12-20T08:23:34.839Z,20.00
2022-12-20T08:24:05.810Z,22.10
2022-12-20T08:24:36.929Z,22.80
2022-12-20T08:25:07.737Z,21.30
2022-12-20T08:25:41.859Z,20.80
2022-12-20T08:26:10.139Z,21.50
2022-12-20T08:26:41.010Z,21.40
2022-12-20T08:27:11.892Z,21.70
2022-12-20T08:27:43.227Z,21.00
2022-12-20T08:28:14.181Z,21.70
2022-12-20T08:28:45.375Z,21.20
2022-12-20T08:29:16.304Z,20.80
2022-12-20T08:29:47.407Z,22.40
2022-12-20T08:30:18.224Z,21.60
2022-12-20T08:30:49.257Z,22.00
2022-12-20T08:31:20.364Z,24.40
2022-12-20T08:31:51.515Z,22.30
2022-12-20T08:32:22.467Z,22.10
2022-12-20T08:32:53.948Z,23.90
2022-12-20T08:33:24.819Z,23.00
2022-12-20T08:33:55.965Z,23.80
2022-12-20T08:34:26.938Z,23.60
2022-12-20T08:34:57.758Z,21.20
2022-12-20T08:35:28.853Z,21.60
2022-12-20T08:35:59.899Z,21.20
2022-12-20T08:36:30.934Z,22.60
2022-12-20T08:37:01.698Z,23.60
2022-12-20T08:37:32.492Z,24.00
2022-12-20T08:38:03.329Z,22.10
2022-12-20T08:38:34.072Z,23.90
2022-12-20T08:39:04.870Z,23.90
2022-12-20T08:39:35.669Z,25.70
2022-12-20T08:40:06.438Z,23.00
2022-12-20T08:40:37.286Z,25.00
2022-12-20T08:41:08.191Z,25.50
2022-12-20T08:41:38.986Z,26.10
2022-12-20T08:42:17.133Z,22.90
2022-12-20T08:42:42.348Z,25.00
2022-12-20T08:43:14.956Z,26.70
2022-12-20T08:43:45.975Z,28.00
2022-12-20T08:44:17.222Z,26.50
2022-12-20T08:44:48.713Z,24.30
2022-12-20T08:45:19.469Z,25.00
2022-12-20T08:45:50.270Z,26.80
2022-12-20T08:46:21.089Z,28.60
2022-12-20T08:46:51.867Z,23.40
2022-12-20T08:47:22.622Z,26.40
2022-12-20T08:47:53.389Z,26.10
2022-12-20T08:48:24.146Z,27.40
2022-12-20T08:48:54.894Z,28.10
2022-12-20T08:49:25.648Z,34.90
2022-12-20T08:49:56.413Z,30.50
2022-12-20T08:50:27.166Z,28.60
2022-12-20T08:50:58.000Z,26.70
2022-12-20T08:51:30.728Z,25.20
2022-12-20T08:52:02.401Z,26.50
2022-12-20T08:52:33.331Z,25.30
2022-12-20T08:53:04.565Z,25.20
2022-12-20T08:53:36.382Z,25.90
2022-12-20T08:54:08.230Z,25.50
2022-12-20T08:54:39.234Z,26.20
2022-12-20T08:55:12.955Z,25.90
2022-12-20T08:55:41.180Z,24.40
2022-12-20T08:56:12.474Z,29.00
2022-12-20T08:56:43.724Z,28.40
2022-12-20T08:57:14.767Z,26.20
2022-12-20T08:57:45.737Z,23.60
2022-12-20T08:58:16.697Z,23.40
2022-12-20T08:58:48.195Z,23.60
2022-12-20T08:59:19.162Z,23.90
2022-12-20T08:59:49.922Z,24.00
2022-12-20T09:00:21.169Z,23.60
2022-12-20T09:00:56.231Z,22.40
2022-12-20T09:01:25.030Z,21.30
2022-12-20T09:01:56.651Z,21.90
2022-12-20T09:02:27.873Z,24.20
2022-12-20T09:02:59.558Z,22.90
2022-12-20T09:03:30.796Z,22.80
2022-12-20T09:04:02.003Z,22.30
2022-12-20T09:04:33.265Z,22.00
2022-12-20T09:05:04.375Z,22.10
2022-12-20T09:05:35.316Z,21.10
2022-12-20T09:06:06.327Z,22.00
2022-12-20T09:06:37.373Z,20.00
2022-12-20T09:07:08.112Z,21.90
2022-12-20T09:07:38.890Z,21.20
2022-12-20T09:08:09.661Z,20.50
2022-12-20T09:08:40.439Z,19.30
2022-12-20T09:09:11.234Z,19.70
2022-12-20T09:09:42.019Z,19.70
2022-12-20T09:10:12.762Z,20.20
2022-12-20T09:10:43.563Z,20.00
2022-12-20T09:11:14.332Z,18.50
2022-12-20T09:11:45.113Z,18.70
2022-12-20T09:12:15.853Z,18.80
2022-12-20T09:12:46.642Z,19.70
2022-12-20T09:13:17.395Z,19.40
2022-12-20T09:13:48.166Z,18.80
2022-12-20T09:14:18.935Z,19.90
2022-12-20T09:14:49.687Z,19.30
2022-12-20T09:15:20.448Z,20.50
2022-12-20T09:15:51.306Z,19.40
2022-12-20T09:16:22.159Z,18.10
2022-12-20T09:16:54.697Z,19.20
2022-12-20T09:17:26.076Z,19.70
2022-12-20T09:17:57.395Z,24.40
2022-12-20T09:18:28.724Z,21.40
2022-12-20T09:19:05.177Z,17.50
2022-12-20T09:19:33.672Z,19.00
2022-12-20T09:20:05.282Z,17.70
2022-12-20T09:20:36.399Z,17.40
2022-12-20T09:21:07.955Z,18.50
2022-12-20T09:21:38.847Z,18.70
2022-12-20T09:22:10.480Z,18.80
2022-12-20T09:22:41.493Z,16.10
2022-12-20T09:23:12.550Z,16.90
2022-12-20T09:23:43.327Z,18.30
2022-12-20T09:24:14.081Z,17.70
2022-12-20T09:24:44.841Z,17.00
2022-12-20T09:25:15.601Z,16.60
2022-12-20T09:25:50.326Z,16.80
2022-12-20T09:26:18.946Z,16.80
2022-12-20T09:26:50.559Z,15.40
2022-12-20T09:27:19.995Z,16.40
2022-12-20T09:27:50.773Z,16.00
2022-12-20T09:28:21.529Z,16.30
2022-12-20T09:28:52.279Z,16.50
2022-12-20T09:29:28.336Z,16.20
2022-12-20T09:29:55.622Z,16.00
2022-12-20T09:30:26.366Z,14.50
2022-12-20T09:30:57.153Z,16.30
2022-12-20T09:31:28.034Z,16.10
2022-12-20T09:31:58.830Z,15.90
2022-12-20T09:32:29.576Z,16.20
2022-12-20T09:33:10.732Z,16.80
2022-12-20T09:33:32.946Z,15.90
2022-12-20T09:34:03.722Z,17.30
2022-12-20T09:34:34.467Z,18.20
2022-12-20T09:35:05.224Z,15.40
2022-12-20T09:35:35.996Z,16.00
2022-12-20T09:36:06.777Z,15.10
2022-12-20T09:36:37.569Z,16.20
2022-12-20T09:37:08.323Z,14.70
2022-12-20T09:37:39.067Z,14.70
2022-12-20T09:38:09.844Z,15.70
2022-12-20T09:38:40.597Z,15.60
2022-12-20T09:39:11.347Z,14.50
2022-12-20T09:39:42.110Z,14.50
2022-12-20T09:40:12.869Z,14.10
2022-12-20T09:40:43.628Z,14.50
2022-12-20T09:41:19.218Z,14.00
2022-12-20T09:41:46.979Z,13.90
2022-12-20T09:42:17.740Z,14.50
2022-12-20T09:42:48.498Z,14.50
2022-12-20T09:43:19.248Z,14.50
2022-12-20T09:43:50.016Z,14.60
2022-12-20T09:44:20.758Z,13.90
2022-12-20T09:44:51.512Z,12.00
2022-12-20T09:45:22.258Z,13.40
2022-12-20T09:45:53.049Z,14.60
2022-12-20T09:46:23.974Z,14.20
2022-12-20T09:46:55.917Z,14.70
2022-12-20T09:47:26.739Z,14.40
2022-12-20T09:47:57.533Z,12.30
2022-12-20T09:48:28.302Z,13.80
2022-12-20T09:48:59.067Z,13.60
2022-12-20T09:49:29.817Z,13.00
2022-12-20T09:50:00.570Z,13.50
2022-12-20T09:50:31.340Z,13.50
2022-12-20T09:51:02.102Z,13.00
2022-12-20T09:51:32.851Z,12.40
2022-12-20T09:52:03.602Z,14.10
2022-12-20T09:52:34.349Z,12.50
2022-12-20T09:53:05.120Z,13.10
2022-12-20T09:53:35.970Z,12.40
2022-12-20T09:54:06.723Z,13.00
2022-12-20T09:54:37.477Z,13.30
2022-12-20T09:55:08.230Z,13.70
2022-12-20T09:55:38.995Z,12.80
2022-12-20T09:56:09.747Z,12.10
2022-12-20T09:56:40.513Z,12.80
2022-12-20T09:57:11.261Z,12.60
2022-12-20T09:57:42.030Z,12.80
2022-12-20T09:58:12.807Z,11.90
2022-12-20T09:58:43.551Z,11.30
2022-12-20T09:59:14.328Z,12.30
2022-12-20T09:59:49.538Z,11.60
2022-12-20T10:00:17.690Z,11.90
2022-12-20T10:00:53.556Z,10.90
2022-12-20T10:01:24.966Z,11.90
2022-12-20T10:01:53.216Z,12.30
2022-12-20T10:02:55.544Z,11.90
2022-12-20T10:03:08.243Z,12.30
2022-12-20T10:03:29.379Z,11.60
2022-12-20T10:04:00.531Z,12.00
2022-12-20T10:04:31.518Z,10.90
2022-12-20T10:05:02.476Z,12.10
2022-12-20T10:05:40.525Z,11.80
2022-12-20T10:06:06.141Z,11.60
2022-12-20T10:07:34.930Z,11.50
2022-12-20T10:08:05.686Z,12.40
2022-12-20T10:08:36.459Z,11.30
2022-12-20T10:09:07.211Z,10.90
2022-12-20T10:09:37.972Z,12.10
2022-12-20T10:10:08.721Z,11.90
2022-12-20T10:10:39.484Z,11.90
2022-12-20T10:11:10.236Z,11.00
2022-12-20T10:11:49.913Z,11.30
2022-12-20T10:12:13.582Z,11.30
2022-12-20T10:12:44.324Z,10.90
2022-12-20T10:13:15.071Z,11.60
2022-12-20T10:13:45.875Z,11.50
2022-12-20T10:14:16.640Z,11.90
2022-12-20T10:14:47.396Z,11.90
2022-12-20T10:15:18.147Z,11.30
2022-12-20T10:15:48.966Z,11.40
2022-12-20T10:16:19.816Z,11.40
2022-12-20T10:16:50.573Z,11.30
2022-12-20T10:17:21.336Z,11.00
2022-12-20T10:17:52.102Z,11.60
2022-12-20T10:18:22.842Z,11.40
2022-12-20T10:18:53.619Z,11.20
2022-12-20T10:19:24.373Z,11.40
2022-12-20T10:19:55.137Z,11.50
2022-12-20T10:20:25.883Z,11.40
2022-12-20T10:20:56.631Z,12.30
2022-12-20T10:21:27.387Z,12.00
2022-12-20T10:21:59.159Z,11.80
2022-12-20T10:22:29.905Z,12.50
2022-12-20T10:23:00.661Z,12.80
2022-12-20T10:23:33.541Z,12.80
2022-12-20T10:24:01.546Z,12.10
2022-12-20T10:24:32.297Z,12.30
2022-12-20T10:25:03.077Z,12.00
2022-12-20T10:25:33.834Z,11.50
2022-12-20T10:26:04.604Z,12.20
2022-12-20T10:26:35.556Z,12.40
2022-12-20T10:27:06.315Z,12.30
2022-12-20T10:27:37.071Z,12.00
2022-12-20T10:28:07.822Z,12.10
2022-12-20T10:28:38.573Z,12.80
2022-12-20T10:29:09.331Z,12.50
2022-12-20T10:29:40.106Z,11.80
2022-12-20T10:30:10.853Z,11.60
2022-12-20T10:30:41.592Z,12.40
2022-12-20T10:31:12.400Z,13.30
2022-12-20T10:31:43.640Z,12.70
2022-12-20T10:32:14.408Z,12.90
2022-12-20T10:32:45.194Z,12.70
2022-12-20T10:33:15.944Z,13.10
2022-12-20T10:33:46.712Z,12.20
2022-12-20T10:34:17.473Z,13.30
2022-12-20T10:34:48.740Z,13.80
2022-12-20T10:35:19.563Z,13.60
2022-12-20T10:35:51.312Z,12.40
2022-12-20T10:36:23.420Z,14.50
2022-12-20T10:36:54.682Z,13.90
2022-12-20T10:37:28.473Z,15.60
2022-12-20T10:38:07.174Z,23.90
2022-12-20T10:38:26.626Z,21.10
2022-12-20T10:38:57.966Z,22.00
2022-12-20T10:39:29.407Z,15.50
2022-12-20T10:40:05.361Z,14.50
2022-12-20T10:41:01.479Z,14.10
2022-12-20T10:41:22.998Z,15.00
2022-12-20T10:41:39.514Z,15.50
2022-12-20T10:42:10.531Z,14.00
2022-12-20T10:42:42.427Z,18.40
2022-12-20T10:43:14.108Z,18.10
2022-12-20T10:43:45.332Z,19.00
2022-12-20T10:44:16.833Z,23.20
2022-12-20T10:44:48.219Z,20.80
2022-12-20T10:45:19.334Z,20.10
2022-12-20T10:45:50.443Z,17.40
2022-12-20T10:46:21.250Z,16.00
2022-12-20T10:46:52.094Z,20.60
2022-12-20T10:47:22.875Z,21.50
2022-12-20T10:47:53.627Z,18.40
2022-12-20T10:48:24.375Z,16.20
2022-12-20T10:48:55.146Z,17.10
2022-12-20T10:49:25.888Z,18.00
2022-12-20T10:49:56.636Z,17.70
2022-12-20T10:50:27.388Z,16.10
2022-12-20T10:50:58.145Z,15.40
2022-12-20T10:51:28.897Z,17.50
2022-12-20T10:51:59.664Z,17.20
2022-12-20T10:52:30.403Z,15.80
2022-12-20T10:53:01.147Z,17.10
2022-12-20T10:53:32.023Z,16.70
2022-12-20T10:54:02.800Z,16.20
2022-12-20T10:54:33.581Z,17.40
2022-12-20T10:55:04.325Z,17.20
2022-12-20T10:55:35.082Z,17.20
2022-12-20T10:56:05.827Z,16.60
2022-12-20T10:56:36.609Z,16.70
2022-12-20T10:57:10.571Z,16.60
2022-12-20T10:57:39.996Z,17.10
2022-12-20T10:58:10.793Z,15.90
2022-12-20T10:58:41.552Z,16.00
2022-12-20T10:59:12.316Z,16.30
2022-12-20T10:59:43.084Z,17.50
2022-12-20T11:00:13.840Z,16.80
2022-12-20T11:00:44.602Z,17.10
2022-12-20T11:01:15.389Z,16.40
2022-12-20T11:01:46.310Z,15.70
2022-12-20T11:02:17.279Z,16.40
2022-12-20T11:02:48.269Z,18.30
2022-12-20T11:03:19.364Z,17.20
2022-12-20T11:03:50.555Z,16.20
2022-12-20T11:04:21.461Z,15.40
2022-12-20T11:04:52.266Z,17.70
2022-12-20T11:05:23.115Z,16.60
2022-12-20T11:05:53.879Z,15.80
2022-12-20T11:06:24.639Z,16.10
2022-12-20T11:06:56.126Z,16.70
2022-12-20T11:07:26.959Z,17.20
2022-12-20T11:08:45.092Z,17.00
2022-12-20T11:09:02.960Z,15.50
2022-12-20T11:09:33.735Z,16.10
2022-12-20T11:10:04.571Z,16.90
2022-12-20T11:10:35.393Z,16.20
2022-12-20T11:11:06.139Z,15.50
2022-12-20T11:11:36.889Z,16.20
2022-12-20T11:12:07.676Z,16.20
2022-12-20T11:12:38.431Z,16.30
2022-12-20T11:13:09.193Z,16.20
2022-12-20T11:13:39.960Z,17.20
2022-12-20T11:14:10.729Z,16.80
2022-12-20T11:14:41.501Z,16.70
2022-12-20T11:15:12.248Z,16.40
2022-12-20T11:15:43.056Z,17.20
2022-12-20T11:16:14.018Z,18.40
2022-12-20T11:16:44.813Z,17.80
2022-12-20T11:17:15.630Z,17.60
2022-12-20T11:17:46.410Z,17.70
2022-12-20T11:18:17.163Z,18.10
2022-12-20T11:18:47.919Z,17.90
2022-12-20T11:19:18.713Z,17.40
2022-12-20T11:19:49.470Z,19.40
2022-12-20T11:20:20.253Z,18.40
2022-12-20T11:20:51.045Z,18.40
2022-12-20T11:21:27.897Z,19.00
2022-12-20T11:21:54.403Z,18.10
2022-12-20T11:22:25.174Z,17.40
2022-12-20T11:22:55.933Z,18.90
2022-12-20T11:23:26.685Z,18.20
2022-12-20T11:23:57.460Z,17.00
2022-12-20T11:24:28.214Z,19.00
2022-12-20T11:24:58.971Z,18.50
2022-12-20T11:25:29.733Z,18.10
2022-12-20T11:26:00.484Z,18.00
2022-12-20T11:26:31.319Z,17.80
2022-12-20T11:27:02.106Z,18.20
2022-12-20T11:27:32.842Z,18.30
2022-12-20T11:28:03.596Z,17.10
2022-12-20T11:28:34.372Z,18.20
2022-12-20T11:29:05.114Z,18.30
2022-12-20T11:29:35.894Z,16.90
2022-12-20T11:30:06.644Z,17.00
2022-12-20T11:30:37.396Z,18.20
2022-12-20T11:31:08.171Z,18.80
2022-12-20T11:31:39.054Z,18.60
2022-12-20T11:32:09.819Z,18.60
2022-12-20T11:32:46.503Z,19.50
2022-12-20T11:33:13.180Z,18.30
2022-12-20T11:33:43.929Z,18.50
2022-12-20T11:34:14.700Z,19.90
2022-12-20T11:34:45.457Z,18.30
2022-12-20T11:35:16.211Z,18.30
2022-12-20T11:35:46.947Z,18.90
2022-12-20T11:36:17.694Z,18.50
2022-12-20T11:36:48.462Z,18.90
2022-12-20T11:37:19.210Z,18.90
2022-12-20T11:37:49.952Z,18.40
2022-12-20T11:38:20.702Z,18.10
2022-12-20T11:38:51.509Z,18.60
2022-12-20T11:39:22.261Z,17.90
2022-12-20T11:39:53.023Z,18.10
2022-12-20T11:40:23.766Z,18.20
2022-12-20T11:40:54.524Z,18.20
2022-12-20T11:41:25.287Z,18.20
2022-12-20T11:41:56.037Z,18.70
2022-12-20T11:42:26.787Z,18.60
2022-12-20T11:42:57.546Z,18.20
2022-12-20T11:43:28.305Z,17.50
2022-12-20T11:44:24.574Z,18.30
2022-12-20T11:44:31.679Z,18.40
2022-12-20T11:45:09.339Z,18.10
2022-12-20T11:45:35.016Z,19.30
2022-12-20T11:46:05.782Z,18.20
2022-12-20T11:46:36.556Z,19.20
2022-12-20T11:47:07.448Z,17.20
2022-12-20T11:47:38.217Z,18.80
2022-12-20T11:48:08.974Z,18.90
2022-12-20T11:48:39.733Z,18.80
2022-12-20T11:49:10.484Z,16.60
2022-12-20T11:49:41.248Z,16.80
2022-12-20T11:50:11.998Z,16.50
2022-12-20T11:50:42.744Z,17.50
2022-12-20T11:51:16.727Z,17.50
2022-12-20T11:51:46.004Z,18.30
2022-12-20T11:52:16.754Z,17.50
2022-12-20T11:52:47.534Z,17.70
2022-12-20T11:53:18.308Z,16.60
2022-12-20T11:53:49.048Z,17.50
2022-12-20T11:54:19.819Z,17.40
2022-12-20T11:54:50.578Z,16.80
2022-12-20T11:55:21.380Z,16.20
2022-12-20T11:55:52.148Z,16.30
2022-12-20T11:56:22.904Z,16.90
2022-12-20T11:56:53.650Z,16.80
2022-12-20T11:57:24.401Z,16.80
2022-12-20T11:58:17.453Z,18.00
2022-12-20T11:58:27.765Z,16.90
2022-12-20T11:58:58.527Z,17.90
2022-12-20T11:59:29.278Z,16.90
2022-12-20T12:00:00.187Z,17.10
2022-12-20T12:00:30.950Z,17.30
2022-12-20T12:01:01.721Z,16.30
2022-12-20T12:01:32.534Z,16.00
2022-12-20T12:02:03.460Z,17.50
2022-12-20T12:02:34.394Z,16.00
2022-12-20T12:03:07.675Z,16.50
2022-12-20T12:03:35.759Z,16.50
2022-12-20T12:04:07.794Z,17.20
2022-12-20T12:04:39.533Z,16.50
2022-12-20T12:05:12.507Z,16.60
2022-12-20T12:05:44.945Z,17.00
2022-12-20T12:06:16.663Z,16.30
2022-12-20T12:06:47.904Z,16.70
2022-12-20T12:07:19.382Z,17.20
2022-12-20T12:07:50.127Z,16.30
2022-12-20T12:08:20.883Z,17.00
2022-12-20T12:08:51.620Z,16.10
2022-12-20T12:09:22.367Z,15.80
2022-12-20T12:09:53.119Z,16.00
2022-12-20T12:10:24.559Z,15.00
2022-12-20T12:10:56.388Z,15.50
2022-12-20T12:12:05.078Z,16.30
2022-12-20T12:12:08.518Z,15.90
2022-12-20T12:12:32.241Z,14.50
2022-12-20T12:13:04.073Z,15.30
2022-12-20T12:13:35.531Z,15.70
2022-12-20T12:14:07.366Z,14.90
2022-12-20T12:14:38.786Z,15.20
2022-12-20T12:15:15.937Z,15.20
2022-12-20T12:15:42.143Z,16.00
2022-12-20T12:16:12.889Z,15.00
2022-12-20T12:16:43.744Z,15.10
2022-12-20T12:17:14.499Z,14.80
2022-12-20T12:17:45.242Z,13.70
2022-12-20T12:18:15.986Z,15.00
2022-12-20T12:18:46.769Z,14.70
2022-12-20T12:19:17.522Z,13.50
2022-12-20T12:19:48.265Z,13.50
2022-12-20T12:20:19.033Z,14.00
2022-12-20T12:20:49.786Z,14.50
2022-12-20T12:21:20.550Z,14.60
2022-12-20T12:21:51.301Z,13.50
2022-12-20T12:22:22.035Z,14.60
2022-12-20T12:22:52.795Z,13.90
2022-12-20T12:23:23.554Z,13.80
2022-12-20T12:23:54.298Z,14.90
2022-12-20T12:24:25.033Z,14.50
2022-12-20T12:24:56.162Z,14.50
2022-12-20T12:25:26.931Z,14.70
2022-12-20T12:25:57.683Z,14.10
2022-12-20T12:26:28.440Z,14.80
2022-12-20T12:26:59.183Z,14.10
2022-12-20T12:27:29.952Z,14.00
2022-12-20T12:28:00.741Z,14.00
2022-12-20T12:28:31.503Z,14.20
2022-12-20T12:29:02.258Z,14.20
2022-12-20T12:29:33.016Z,14.70
2022-12-20T12:30:03.972Z,13.80
2022-12-20T12:30:34.738Z,13.60
2022-12-20T12:31:05.585Z,13.20
2022-12-20T12:31:36.405Z,13.60
2022-12-20T12:32:07.210Z,14.10
2022-12-20T12:32:38.057Z,13.50
2022-12-20T12:33:08.820Z,13.80
2022-12-20T12:33:39.772Z,13.90
2022-12-20T12:34:10.525Z,12.80
2022-12-20T12:34:41.267Z,14.80
2022-12-20T12:35:12.017Z,13.50
2022-12-20T12:35:42.786Z,13.00
2022-12-20T12:36:13.536Z,12.90
2022-12-20T12:36:44.296Z,13.20
2022-12-20T12:37:15.034Z,12.60
2022-12-20T12:37:45.790Z,12.00
2022-12-20T12:38:16.559Z,12.80
2022-12-20T12:38:47.317Z,13.60
2022-12-20T12:39:18.061Z,13.90
2022-12-20T12:39:48.829Z,14.20
2022-12-20T12:40:19.579Z,12.20
2022-12-20T12:40:52.787Z,14.60
2022-12-20T12:41:20.828Z,13.00
2022-12-20T12:41:51.578Z,12.60
2022-12-20T12:42:22.336Z,13.30
2022-12-20T12:42:53.089Z,12.60
2022-12-20T12:43:23.870Z,13.20